sensor_id;sensor_type;location;lat;lon;timestamp;temperature;humidity
57753;DHT22;43583;53.132;6.574;2022-08-30T00:01:22;14.10;99.90
57753;DHT22;43583;53.132;6.574;2022-08-30T00:03:49;14.00;99.90
57753;DHT22;43583;53.132;6.574;2022-08-30T00:06:17;13.90;99.90
57753;DHT22;43583;53.132;6.574;2022-08-30T00:08:44;13.80;99.90
57753;DHT22;43583;53.132;6.574;2022-08-30T00:11:12;13.80;99.90
57753;DHT22;43583;53.132;6.574;2022-08-30T00:13:39;13.80;99.90
57753;DHT22;43583;53.132;6.574;2022-08-30T00:16:06;13.70;99.90
57753;DHT22;43583;53.132;6.574;2022-08-30T00:18:33;13.70;99.90
57753;DHT22;43583;53.132;6.574;2022-08-30T00:21:00;13.70;99.90
57753;DHT22;43583;53.132;6.574;2022-08-30T00:23:26;13.70;99.90
57753;DHT22;43583;53.132;6.574;2022-08-30T00:25:51;13.60;99.90
57753;DHT22;43583;53.132;6.574;2022-08-30T00:28:17;13.60;99.90
57753;DHT22;43583;53.132;6.574;2022-08-30T00:30:44;13.60;99.90
57753;DHT22;43583;53.132;6.574;2022-08-30T00:33:11;13.50;99.90
57753;DHT22;43583;53.132;6.574;2022-08-30T00:35:37;13.50;99.90
57753;DHT22;43583;53.132;6.574;2022-08-30T00:38:05;13.40;99.90
57753;DHT22;43583;53.132;6.574;2022-08-30T00:40:31;13.40;99.90
57753;DHT22;43583;53.132;6.574;2022-08-30T00:42:58;13.30;99.90
57753;DHT22;43583;53.132;6.574;2022-08-30T00:45:30;13.20;99.90
57753;DHT22;43583;53.132;6.574;2022-08-30T00:47:57;13.20;99.90
57753;DHT22;43583;53.132;6.574;2022-08-30T00:50:28;13.10;99.90
57753;DHT22;43583;53.132;6.574;2022-08-30T00:52:58;13.10;99.90
57753;DHT22;43583;53.132;6.574;2022-08-30T00:55:24;13.00;99.90
57753;DHT22;43583;53.132;6.574;2022-08-30T00:57:54;13.00;99.90
57753;DHT22;43583;53.132;6.574;2022-08-30T01:00:20;12.90;99.90
57753;DHT22;43583;53.132;6.574;2022-08-30T01:02:46;12.80;99.90
57753;DHT22;43583;53.132;6.574;2022-08-30T01:05:13;12.80;99.90
57753;DHT22;43583;53.132;6.574;2022-08-30T01:07:39;12.70;99.90
57753;DHT22;43583;53.132;6.574;2022-08-30T01:10:07;12.60;99.90
57753;DHT22;43583;53.132;6.574;2022-08-30T01:12:35;12.60;99.90
57753;DHT22;43583;53.132;6.574;2022-08-30T01:15:01;12.60;99.90
57753;DHT22;43583;53.132;6.574;2022-08-30T01:17:27;12.50;99.90
57753;DHT22;43583;53.132;6.574;2022-08-30T01:19:59;12.50;99.90
57753;DHT22;43583;53.132;6.574;2022-08-30T01:25:17;12.60;99.90
57753;DHT22;43583;53.132;6.574;2022-08-30T01:27:51;12.60;99.90
57753;DHT22;43583;53.132;6.574;2022-08-30T01:30:17;12.70;99.90
57753;DHT22;43583;53.132;6.574;2022-08-30T01:32:46;12.80;99.90
57753;DHT22;43583;53.132;6.574;2022-08-30T01:35:15;12.80;99.90
57753;DHT22;43583;53.132;6.574;2022-08-30T01:37:42;13.00;99.90
57753;DHT22;43583;53.132;6.574;2022-08-30T01:40:09;13.10;99.90
57753;DHT22;43583;53.132;6.574;2022-08-30T01:42:35;13.20;99.90
57753;DHT22;43583;53.132;6.574;2022-08-30T01:45:02;13.30;99.90
57753;DHT22;43583;53.132;6.574;2022-08-30T01:47:28;13.40;99.90
57753;DHT22;43583;53.132;6.574;2022-08-30T01:49:54;13.40;99.90
57753;DHT22;43583;53.132;6.574;2022-08-30T01:52:19;13.50;99.90
57753;DHT22;43583;53.132;6.574;2022-08-30T01:54:45;13.50;99.90
57753;DHT22;43583;53.132;6.574;2022-08-30T01:57:14;13.50;99.90
57753;DHT22;43583;53.132;6.574;2022-08-30T01:59:43;13.50;99.90
57753;DHT22;43583;53.132;6.574;2022-08-30T02:02:19;13.50;99.90
57753;DHT22;43583;53.132;6.574;2022-08-30T02:04:45;13.40;99.90
57753;DHT22;43583;53.132;6.574;2022-08-30T02:07:11;13.40;99.90
57753;DHT22;43583;53.132;6.574;2022-08-30T02:09:37;13.40;99.90
57753;DHT22;43583;53.132;6.574;2022-08-30T02:12:05;13.40;99.90
57753;DHT22;43583;53.132;6.574;2022-08-30T02:14:33;13.30;99.90
57753;DHT22;43583;53.132;6.574;2022-08-30T02:16:58;13.30;99.90
57753;DHT22;43583;53.132;6.574;2022-08-30T02:19:24;13.40;99.90
57753;DHT22;43583;53.132;6.574;2022-08-30T02:21:50;13.30;99.90
57753;DHT22;43583;53.132;6.574;2022-08-30T02:24:15;13.30;99.90
57753;DHT22;43583;53.132;6.574;2022-08-30T02:26:41;13.30;99.90
57753;DHT22;43583;53.132;6.574;2022-08-30T02:29:07;13.40;99.90
57753;DHT22;43583;53.132;6.574;2022-08-30T02:31:33;13.30;99.90
57753;DHT22;43583;53.132;6.574;2022-08-30T02:33:59;13.30;99.90
57753;DHT22;43583;53.132;6.574;2022-08-30T02:36:25;13.30;99.90
57753;DHT22;43583;53.132;6.574;2022-08-30T02:38:51;13.30;99.90
57753;DHT22;43583;53.132;6.574;2022-08-30T02:41:17;13.20;99.90
57753;DHT22;43583;53.132;6.574;2022-08-30T02:43:43;13.20;99.90
57753;DHT22;43583;53.132;6.574;2022-08-30T02:46:08;13.10;99.90
57753;DHT22;43583;53.132;6.574;2022-08-30T02:48:34;13.10;99.90
57753;DHT22;43583;53.132;6.574;2022-08-30T02:51:08;13.10;99.90
57753;DHT22;43583;53.132;6.574;2022-08-30T02:53:34;13.00;99.90
57753;DHT22;43583;53.132;6.574;2022-08-30T02:56:00;13.00;99.90
57753;DHT22;43583;53.132;6.574;2022-08-30T02:58:25;13.00;99.90
57753;DHT22;43583;53.132;6.574;2022-08-30T03:00:51;13.00;99.90
57753;DHT22;43583;53.132;6.574;2022-08-30T03:03:17;12.90;99.90
57753;DHT22;43583;53.132;6.574;2022-08-30T03:05:43;12.90;99.90
57753;DHT22;43583;53.132;6.574;2022-08-30T03:08:08;12.90;99.90
57753;DHT22;43583;53.132;6.574;2022-08-30T03:10:35;12.90;99.90
57753;DHT22;43583;53.132;6.574;2022-08-30T03:13:01;12.80;99.90
57753;DHT22;43583;53.132;6.574;2022-08-30T03:15:27;12.80;99.90
57753;DHT22;43583;53.132;6.574;2022-08-30T03:17:54;12.80;99.90
57753;DHT22;43583;53.132;6.574;2022-08-30T03:20:21;12.90;99.90
57753;DHT22;43583;53.132;6.574;2022-08-30T03:22:46;12.90;99.90
57753;DHT22;43583;53.132;6.574;2022-08-30T03:25:13;12.90;99.90
57753;DHT22;43583;53.132;6.574;2022-08-30T03:27:39;12.80;99.90
57753;DHT22;43583;53.132;6.574;2022-08-30T03:30:05;12.80;99.90
57753;DHT22;43583;53.132;6.574;2022-08-30T03:32:31;12.90;99.90
57753;DHT22;43583;53.132;6.574;2022-08-30T03:34:57;12.80;99.90
57753;DHT22;43583;53.132;6.574;2022-08-30T03:37:24;12.80;99.90
57753;DHT22;43583;53.132;6.574;2022-08-30T03:39:49;12.70;99.90
57753;DHT22;43583;53.132;6.574;2022-08-30T03:42:15;12.80;99.90
57753;DHT22;43583;53.132;6.574;2022-08-30T03:44:40;12.70;99.90
57753;DHT22;43583;53.132;6.574;2022-08-30T03:47:06;12.70;99.90
57753;DHT22;43583;53.132;6.574;2022-08-30T03:49:32;12.70;99.90
57753;DHT22;43583;53.132;6.574;2022-08-30T03:51:58;12.70;99.90
57753;DHT22;43583;53.132;6.574;2022-08-30T03:54:23;12.60;99.90
57753;DHT22;43583;53.132;6.574;2022-08-30T03:56:49;12.50;99.90
57753;DHT22;43583;53.132;6.574;2022-08-30T03:59:15;12.50;99.90
57753;DHT22;43583;53.132;6.574;2022-08-30T04:01:40;12.40;99.90
57753;DHT22;43583;53.132;6.574;2022-08-30T04:04:06;12.30;99.90
57753;DHT22;43583;53.132;6.574;2022-08-30T04:06:32;12.20;99.90
57753;DHT22;43583;53.132;6.574;2022-08-30T04:08:58;12.00;99.90
57753;DHT22;43583;53.132;6.574;2022-08-30T04:11:23;11.90;99.90
57753;DHT22;43583;53.132;6.574;2022-08-30T04:13:49;11.80;99.90
57753;DHT22;43583;53.132;6.574;2022-08-30T04:16:18;11.80;99.90
57753;DHT22;43583;53.132;6.574;2022-08-30T04:18:43;11.80;99.90
57753;DHT22;43583;53.132;6.574;2022-08-30T04:21:09;11.80;99.90
57753;DHT22;43583;53.132;6.574;2022-08-30T04:23:34;11.70;99.90
57753;DHT22;43583;53.132;6.574;2022-08-30T04:26:00;11.70;99.90
57753;DHT22;43583;53.132;6.574;2022-08-30T04:28:25;11.70;99.90
57753;DHT22;43583;53.132;6.574;2022-08-30T04:30:51;11.60;99.90
57753;DHT22;43583;53.132;6.574;2022-08-30T04:33:17;11.50;99.90
57753;DHT22;43583;53.132;6.574;2022-08-30T04:35:44;11.50;99.90
57753;DHT22;43583;53.132;6.574;2022-08-30T04:38:11;11.40;99.90
57753;DHT22;43583;53.132;6.574;2022-08-30T04:40:40;11.30;99.90
57753;DHT22;43583;53.132;6.574;2022-08-30T04:43:06;11.30;99.90
57753;DHT22;43583;53.132;6.574;2022-08-30T04:45:31;11.20;99.90
57753;DHT22;43583;53.132;6.574;2022-08-30T04:47:57;11.20;99.90
57753;DHT22;43583;53.132;6.574;2022-08-30T04:50:22;11.10;99.90
57753;DHT22;43583;53.132;6.574;2022-08-30T04:52:48;11.10;99.90
57753;DHT22;43583;53.132;6.574;2022-08-30T04:55:14;11.00;99.90
57753;DHT22;43583;53.132;6.574;2022-08-30T04:57:40;11.00;99.90
57753;DHT22;43583;53.132;6.574;2022-08-30T05:00:10;11.00;99.90
57753;DHT22;43583;53.132;6.574;2022-08-30T05:02:38;11.00;99.90
57753;DHT22;43583;53.132;6.574;2022-08-30T05:05:04;11.20;99.90
57753;DHT22;43583;53.132;6.574;2022-08-30T05:07:49;11.30;99.90
57753;DHT22;43583;53.132;6.574;2022-08-30T05:10:15;11.40;99.90
57753;DHT22;43583;53.132;6.574;2022-08-30T05:12:40;11.50;99.90
57753;DHT22;43583;53.132;6.574;2022-08-30T05:15:08;11.60;99.90
57753;DHT22;43583;53.132;6.574;2022-08-30T05:17:36;11.60;99.90
57753;DHT22;43583;53.132;6.574;2022-08-30T05:20:03;11.70;99.90
57753;DHT22;43583;53.132;6.574;2022-08-30T05:22:28;11.70;99.90
57753;DHT22;43583;53.132;6.574;2022-08-30T05:24:54;11.80;99.90
57753;DHT22;43583;53.132;6.574;2022-08-30T05:27:20;12.20;99.90
57753;DHT22;43583;53.132;6.574;2022-08-30T05:29:45;13.20;99.90
57753;DHT22;43583;53.132;6.574;2022-08-30T05:32:11;14.40;99.90
57753;DHT22;43583;53.132;6.574;2022-08-30T05:34:36;15.50;99.90
57753;DHT22;43583;53.132;6.574;2022-08-30T05:37:02;16.40;99.90
57753;DHT22;43583;53.132;6.574;2022-08-30T05:39:28;16.80;99.90
57753;DHT22;43583;53.132;6.574;2022-08-30T05:41:58;16.70;99.90
57753;DHT22;43583;53.132;6.574;2022-08-30T05:44:23;16.40;99.90
57753;DHT22;43583;53.132;6.574;2022-08-30T05:46:49;16.10;99.90
57753;DHT22;43583;53.132;6.574;2022-08-30T05:49:14;15.70;99.90
57753;DHT22;43583;53.132;6.574;2022-08-30T05:51:40;15.50;99.90
57753;DHT22;43583;53.132;6.574;2022-08-30T05:54:06;15.50;99.90
57753;DHT22;43583;53.132;6.574;2022-08-30T05:56:34;15.80;99.90
57753;DHT22;43583;53.132;6.574;2022-08-30T05:59:01;15.90;99.90
57753;DHT22;43583;53.132;6.574;2022-08-30T06:01:37;16.20;99.90
57753;DHT22;43583;53.132;6.574;2022-08-30T06:04:05;16.90;99.90
57753;DHT22;43583;53.132;6.574;2022-08-30T06:06:33;17.90;99.90
57753;DHT22;43583;53.132;6.574;2022-08-30T06:08:59;19.10;99.90
57753;DHT22;43583;53.132;6.574;2022-08-30T06:11:25;20.20;99.90
57753;DHT22;43583;53.132;6.574;2022-08-30T06:13:52;21.30;99.90
57753;DHT22;43583;53.132;6.574;2022-08-30T06:16:21;22.30;99.90
57753;DHT22;43583;53.132;6.574;2022-08-30T06:18:47;23.10;99.90
57753;DHT22;43583;53.132;6.574;2022-08-30T06:21:17;23.90;99.90
57753;DHT22;43583;53.132;6.574;2022-08-30T06:23:43;24.40;99.90
57753;DHT22;43583;53.132;6.574;2022-08-30T06:26:09;25.00;99.90
57753;DHT22;43583;53.132;6.574;2022-08-30T06:28:35;25.60;99.90
57753;DHT22;43583;53.132;6.574;2022-08-30T06:31:01;25.90;99.90
57753;DHT22;43583;53.132;6.574;2022-08-30T06:33:29;26.00;99.90
57753;DHT22;43583;53.132;6.574;2022-08-30T06:36:01;26.50;99.90
57753;DHT22;43583;53.132;6.574;2022-08-30T06:38:27;26.90;97.90
57753;DHT22;43583;53.132;6.574;2022-08-30T06:40:52;27.20;97.30
57753;DHT22;43583;53.132;6.574;2022-08-30T06:43:18;27.60;95.50
57753;DHT22;43583;53.132;6.574;2022-08-30T06:45:43;27.80;93.90
57753;DHT22;43583;53.132;6.574;2022-08-30T06:48:09;27.90;93.10
57753;DHT22;43583;53.132;6.574;2022-08-30T06:50:34;28.20;92.10
57753;DHT22;43583;53.132;6.574;2022-08-30T06:53:00;28.40;91.00
57753;DHT22;43583;53.132;6.574;2022-08-30T06:55:30;28.40;89.60
57753;DHT22;43583;53.132;6.574;2022-08-30T06:57:58;28.50;88.10
57753;DHT22;43583;53.132;6.574;2022-08-30T07:00:24;28.30;86.20
57753;DHT22;43583;53.132;6.574;2022-08-30T07:02:50;28.50;85.70
57753;DHT22;43583;53.132;6.574;2022-08-30T07:05:16;28.50;84.60
57753;DHT22;43583;53.132;6.574;2022-08-30T07:07:42;28.90;82.10
57753;DHT22;43583;53.132;6.574;2022-08-30T07:10:08;28.90;80.40
57753;DHT22;43583;53.132;6.574;2022-08-30T07:12:35;29.10;78.70
57753;DHT22;43583;53.132;6.574;2022-08-30T07:15:03;28.90;76.50
57753;DHT22;43583;53.132;6.574;2022-08-30T07:17:29;29.20;75.60
57753;DHT22;43583;53.132;6.574;2022-08-30T07:20:13;29.10;74.50
57753;DHT22;43583;53.132;6.574;2022-08-30T07:22:39;29.10;73.50
57753;DHT22;43583;53.132;6.574;2022-08-30T07:25:04;29.30;73.70
57753;DHT22;43583;53.132;6.574;2022-08-30T07:27:30;29.20;70.20
57753;DHT22;43583;53.132;6.574;2022-08-30T07:29:56;29.10;71.00
57753;DHT22;43583;53.132;6.574;2022-08-30T07:32:23;28.60;68.80
57753;DHT22;43583;53.132;6.574;2022-08-30T07:34:48;28.50;69.80
57753;DHT22;43583;53.132;6.574;2022-08-30T07:37:14;28.70;70.40
57753;DHT22;43583;53.132;6.574;2022-08-30T07:39:39;28.50;69.00
57753;DHT22;43583;53.132;6.574;2022-08-30T07:42:05;28.70;69.20
57753;DHT22;43583;53.132;6.574;2022-08-30T07:44:30;29.00;68.20
57753;DHT22;43583;53.132;6.574;2022-08-30T07:46:56;28.90;66.70
57753;DHT22;43583;53.132;6.574;2022-08-30T07:49:22;28.90;65.80
57753;DHT22;43583;53.132;6.574;2022-08-30T07:51:47;28.60;65.00
57753;DHT22;43583;53.132;6.574;2022-08-30T07:54:13;28.30;63.90
57753;DHT22;43583;53.132;6.574;2022-08-30T07:56:39;28.10;64.50
57753;DHT22;43583;53.132;6.574;2022-08-30T07:59:04;28.10;64.80
57753;DHT22;43583;53.132;6.574;2022-08-30T08:01:30;27.80;64.50
57753;DHT22;43583;53.132;6.574;2022-08-30T08:03:56;27.50;63.10
57753;DHT22;43583;53.132;6.574;2022-08-30T08:06:23;27.10;63.80
57753;DHT22;43583;53.132;6.574;2022-08-30T08:08:49;27.00;64.30
57753;DHT22;43583;53.132;6.574;2022-08-30T08:11:19;27.20;64.40
57753;DHT22;43583;53.132;6.574;2022-08-30T08:13:46;27.20;63.70
57753;DHT22;43583;53.132;6.574;2022-08-30T08:16:13;27.50;62.90
57753;DHT22;43583;53.132;6.574;2022-08-30T08:18:38;27.80;62.30
57753;DHT22;43583;53.132;6.574;2022-08-30T08:21:04;27.70;61.50
57753;DHT22;43583;53.132;6.574;2022-08-30T08:23:30;27.60;60.70
57753;DHT22;43583;53.132;6.574;2022-08-30T08:25:55;27.20;61.50
57753;DHT22;43583;53.132;6.574;2022-08-30T08:28:22;27.60;62.10
57753;DHT22;43583;53.132;6.574;2022-08-30T08:30:48;27.80;60.90
57753;DHT22;43583;53.132;6.574;2022-08-30T08:33:15;27.90;60.50
57753;DHT22;43583;53.132;6.574;2022-08-30T08:35:41;28.10;60.40
57753;DHT22;43583;53.132;6.574;2022-08-30T08:38:07;28.20;60.20
57753;DHT22;43583;53.132;6.574;2022-08-30T08:40:41;28.30;59.30
57753;DHT22;43583;53.132;6.574;2022-08-30T08:43:14;28.00;58.80
57753;DHT22;43583;53.132;6.574;2022-08-30T08:46:03;28.10;59.10
57753;DHT22;43583;53.132;6.574;2022-08-30T08:48:46;27.60;56.90
57753;DHT22;43583;53.132;6.574;2022-08-30T08:51:16;27.70;58.10
57753;DHT22;43583;53.132;6.574;2022-08-30T08:54:18;26.50;59.70
57753;DHT22;43583;53.132;6.574;2022-08-30T08:56:45;25.40;59.80
57753;DHT22;43583;53.132;6.574;2022-08-30T08:59:12;24.40;62.80
57753;DHT22;43583;53.132;6.574;2022-08-30T09:01:39;24.10;64.70
57753;DHT22;43583;53.132;6.574;2022-08-30T09:04:15;24.20;65.20
57753;DHT22;43583;53.132;6.574;2022-08-30T09:09:17;26.20;63.40
57753;DHT22;43583;53.132;6.574;2022-08-30T09:11:45;26.70;62.70
57753;DHT22;43583;53.132;6.574;2022-08-30T09:14:34;26.50;60.60
57753;DHT22;43583;53.132;6.574;2022-08-30T09:17:01;26.00;61.90
57753;DHT22;43583;53.132;6.574;2022-08-30T09:22:46;26.80;61.20
57753;DHT22;43583;53.132;6.574;2022-08-30T09:27:45;26.70;60.60
57753;DHT22;43583;53.132;6.574;2022-08-30T09:30:22;26.70;60.70
57753;DHT22;43583;53.132;6.574;2022-08-30T09:33:02;26.70;60.80
57753;DHT22;43583;53.132;6.574;2022-08-30T09:35:35;26.30;60.20
57753;DHT22;43583;53.132;6.574;2022-08-30T09:38:08;25.40;62.40
57753;DHT22;43583;53.132;6.574;2022-08-30T09:40:44;25.30;63.50
57753;DHT22;43583;53.132;6.574;2022-08-30T09:43:22;24.70;64.00
57753;DHT22;43583;53.132;6.574;2022-08-30T09:46:06;23.60;64.60
57753;DHT22;43583;53.132;6.574;2022-08-30T09:48:39;23.10;67.50
57753;DHT22;43583;53.132;6.574;2022-08-30T09:51:32;22.50;68.90
57753;DHT22;43583;53.132;6.574;2022-08-30T09:54:14;22.10;69.00
57753;DHT22;43583;53.132;6.574;2022-08-30T09:56:49;22.10;70.10
57753;DHT22;43583;53.132;6.574;2022-08-30T10:00:01;21.80;71.20
57753;DHT22;43583;53.132;6.574;2022-08-30T10:02:42;21.80;72.60
57753;DHT22;43583;53.132;6.574;2022-08-30T10:05:24;22.20;72.50
57753;DHT22;43583;53.132;6.574;2022-08-30T10:08:17;21.80;71.90
57753;DHT22;43583;53.132;6.574;2022-08-30T10:10:55;21.50;72.40
57753;DHT22;43583;53.132;6.574;2022-08-30T10:18:41;22.20;71.50
57753;DHT22;43583;53.132;6.574;2022-08-30T10:21:22;22.50;71.50
57753;DHT22;43583;53.132;6.574;2022-08-30T10:23:55;22.60;71.70
57753;DHT22;43583;53.132;6.574;2022-08-30T10:26:38;22.90;71.00
57753;DHT22;43583;53.132;6.574;2022-08-30T10:29:09;23.10;70.30
57753;DHT22;43583;53.132;6.574;2022-08-30T10:32:04;23.10;69.70
57753;DHT22;43583;53.132;6.574;2022-08-30T10:34:36;23.40;68.90
57753;DHT22;43583;53.132;6.574;2022-08-30T10:37:09;23.60;68.90
57753;DHT22;43583;53.132;6.574;2022-08-30T10:39:41;23.50;68.20
57753;DHT22;43583;53.132;6.574;2022-08-30T10:42:26;23.60;68.90
57753;DHT22;43583;53.132;6.574;2022-08-30T10:45:08;23.40;66.60
57753;DHT22;43583;53.132;6.574;2022-08-30T10:47:42;23.70;68.80
57753;DHT22;43583;53.132;6.574;2022-08-30T10:50:13;23.70;68.30
57753;DHT22;43583;53.132;6.574;2022-08-30T10:52:43;23.80;68.10
57753;DHT22;43583;53.132;6.574;2022-08-30T10:55:23;23.70;68.60
57753;DHT22;43583;53.132;6.574;2022-08-30T10:57:50;23.80;68.40
57753;DHT22;43583;53.132;6.574;2022-08-30T11:00:23;23.70;67.90
57753;DHT22;43583;53.132;6.574;2022-08-30T11:03:08;23.50;68.10
57753;DHT22;43583;53.132;6.574;2022-08-30T11:08:52;23.40;68.90
57753;DHT22;43583;53.132;6.574;2022-08-30T11:14:18;23.50;69.10
57753;DHT22;43583;53.132;6.574;2022-08-30T11:16:50;23.30;68.50
57753;DHT22;43583;53.132;6.574;2022-08-30T11:19:23;23.40;69.40
57753;DHT22;43583;53.132;6.574;2022-08-30T11:21:51;23.10;69.00
57753;DHT22;43583;53.132;6.574;2022-08-30T11:24:23;22.70;68.90
57753;DHT22;43583;53.132;6.574;2022-08-30T11:26:55;22.50;69.30
57753;DHT22;43583;53.132;6.574;2022-08-30T11:29:43;22.70;70.60
57753;DHT22;43583;53.132;6.574;2022-08-30T11:37:10;23.00;68.80
57753;DHT22;43583;53.132;6.574;2022-08-30T11:39:56;23.20;69.10
57753;DHT22;43583;53.132;6.574;2022-08-30T11:50:27;23.20;67.50
57753;DHT22;43583;53.132;6.574;2022-08-30T11:53:13;23.30;67.40
57753;DHT22;43583;53.132;6.574;2022-08-30T11:56:02;23.30;68.00
57753;DHT22;43583;53.132;6.574;2022-08-30T11:59:03;23.30;68.10
57753;DHT22;43583;53.132;6.574;2022-08-30T12:01:35;23.40;67.40
57753;DHT22;43583;53.132;6.574;2022-08-30T12:04:11;23.10;67.90
57753;DHT22;43583;53.132;6.574;2022-08-30T12:11:59;22.60;68.80
57753;DHT22;43583;53.132;6.574;2022-08-30T12:17:23;22.70;68.40
57753;DHT22;43583;53.132;6.574;2022-08-30T12:20:16;22.80;67.30
57753;DHT22;43583;53.132;6.574;2022-08-30T12:22:42;22.90;67.70
57753;DHT22;43583;53.132;6.574;2022-08-30T12:25:21;23.00;68.30
57753;DHT22;43583;53.132;6.574;2022-08-30T12:27:49;23.00;67.00
57753;DHT22;43583;53.132;6.574;2022-08-30T12:30:24;23.00;68.20
57753;DHT22;43583;53.132;6.574;2022-08-30T12:32:50;23.10;68.60
57753;DHT22;43583;53.132;6.574;2022-08-30T12:35:20;23.10;68.80
57753;DHT22;43583;53.132;6.574;2022-08-30T12:37:56;23.00;68.10
57753;DHT22;43583;53.132;6.574;2022-08-30T12:40:24;22.90;67.90
57753;DHT22;43583;53.132;6.574;2022-08-30T12:42:59;22.80;68.90
57753;DHT22;43583;53.132;6.574;2022-08-30T12:45:31;22.90;69.60
57753;DHT22;43583;53.132;6.574;2022-08-30T12:48:06;23.00;69.90
57753;DHT22;43583;53.132;6.574;2022-08-30T12:53:26;22.90;69.60
57753;DHT22;43583;53.132;6.574;2022-08-30T12:56:02;22.90;68.60
57753;DHT22;43583;53.132;6.574;2022-08-30T12:58:47;23.00;69.80
57753;DHT22;43583;53.132;6.574;2022-08-30T13:03:55;22.40;68.60
57753;DHT22;43583;53.132;6.574;2022-08-30T13:06:36;22.30;69.60
57753;DHT22;43583;53.132;6.574;2022-08-30T13:09:03;22.40;71.10
57753;DHT22;43583;53.132;6.574;2022-08-30T13:11:29;22.30;70.20
57753;DHT22;43583;53.132;6.574;2022-08-30T13:13:59;22.00;70.40
57753;DHT22;43583;53.132;6.574;2022-08-30T13:16:42;22.10;70.60
57753;DHT22;43583;53.132;6.574;2022-08-30T13:19:31;22.20;70.60
57753;DHT22;43583;53.132;6.574;2022-08-30T13:21:58;22.40;70.00
57753;DHT22;43583;53.132;6.574;2022-08-30T13:24:25;22.50;70.40
57753;DHT22;43583;53.132;6.574;2022-08-30T13:26:53;22.50;70.10
57753;DHT22;43583;53.132;6.574;2022-08-30T13:29:24;22.60;70.70
57753;DHT22;43583;53.132;6.574;2022-08-30T13:31:50;22.70;71.30
57753;DHT22;43583;53.132;6.574;2022-08-30T13:34:16;22.80;70.30
57753;DHT22;43583;53.132;6.574;2022-08-30T13:36:49;22.80;69.20
57753;DHT22;43583;53.132;6.574;2022-08-30T13:39:16;22.70;69.90
57753;DHT22;43583;53.132;6.574;2022-08-30T13:41:42;22.40;70.30
57753;DHT22;43583;53.132;6.574;2022-08-30T13:44:08;22.30;71.30
57753;DHT22;43583;53.132;6.574;2022-08-30T13:46:34;22.30;72.80
57753;DHT22;43583;53.132;6.574;2022-08-30T13:49:05;22.50;71.80
57753;DHT22;43583;53.132;6.574;2022-08-30T13:51:32;22.70;71.20
57753;DHT22;43583;53.132;6.574;2022-08-30T13:53:58;22.70;70.70
57753;DHT22;43583;53.132;6.574;2022-08-30T13:56:28;22.90;70.90
57753;DHT22;43583;53.132;6.574;2022-08-30T13:58:58;23.00;71.40
57753;DHT22;43583;53.132;6.574;2022-08-30T14:01:24;23.00;71.40
57753;DHT22;43583;53.132;6.574;2022-08-30T14:03:50;23.00;71.30
57753;DHT22;43583;53.132;6.574;2022-08-30T14:06:15;23.20;71.30
57753;DHT22;43583;53.132;6.574;2022-08-30T14:08:41;23.40;71.20
57753;DHT22;43583;53.132;6.574;2022-08-30T14:11:07;23.40;70.40
57753;DHT22;43583;53.132;6.574;2022-08-30T14:13:35;23.40;71.20
57753;DHT22;43583;53.132;6.574;2022-08-30T14:16:03;23.40;70.80
57753;DHT22;43583;53.132;6.574;2022-08-30T14:18:29;23.20;71.20
57753;DHT22;43583;53.132;6.574;2022-08-30T14:20:54;23.00;71.30
57753;DHT22;43583;53.132;6.574;2022-08-30T14:23:20;22.90;72.10
57753;DHT22;43583;53.132;6.574;2022-08-30T14:25:46;22.90;72.10
57753;DHT22;43583;53.132;6.574;2022-08-30T14:28:13;23.10;72.20
57753;DHT22;43583;53.132;6.574;2022-08-30T14:30:39;23.30;71.70
57753;DHT22;43583;53.132;6.574;2022-08-30T14:33:14;23.30;71.30
57753;DHT22;43583;53.132;6.574;2022-08-30T14:35:40;23.10;70.30
57753;DHT22;43583;53.132;6.574;2022-08-30T14:38:05;22.80;71.50
57753;DHT22;43583;53.132;6.574;2022-08-30T14:40:31;22.50;72.10
57753;DHT22;43583;53.132;6.574;2022-08-30T14:42:58;22.30;72.70
57753;DHT22;43583;53.132;6.574;2022-08-30T14:45:24;22.20;73.40
57753;DHT22;43583;53.132;6.574;2022-08-30T14:47:49;22.20;73.70
57753;DHT22;43583;53.132;6.574;2022-08-30T14:50:15;22.40;74.30
57753;DHT22;43583;53.132;6.574;2022-08-30T14:52:41;22.40;74.10
57753;DHT22;43583;53.132;6.574;2022-08-30T14:55:08;22.20;73.40
57753;DHT22;43583;53.132;6.574;2022-08-30T14:57:37;22.00;73.70
57753;DHT22;43583;53.132;6.574;2022-08-30T15:00:18;21.90;74.70
57753;DHT22;43583;53.132;6.574;2022-08-30T15:02:43;21.90;75.30
57753;DHT22;43583;53.132;6.574;2022-08-30T15:05:12;22.00;75.50
57753;DHT22;43583;53.132;6.574;2022-08-30T15:07:43;22.20;75.10
57753;DHT22;43583;53.132;6.574;2022-08-30T15:10:29;22.40;75.00
57753;DHT22;43583;53.132;6.574;2022-08-30T15:12:55;22.50;73.90
57753;DHT22;43583;53.132;6.574;2022-08-30T15:15:23;22.50;73.70
57753;DHT22;43583;53.132;6.574;2022-08-30T15:17:52;22.30;74.10
57753;DHT22;43583;53.132;6.574;2022-08-30T15:20:49;22.00;74.50
57753;DHT22;43583;53.132;6.574;2022-08-30T15:23:44;21.90;77.00
57753;DHT22;43583;53.132;6.574;2022-08-30T15:26:32;21.70;76.30
57753;DHT22;43583;53.132;6.574;2022-08-30T15:28:58;21.80;76.40
57753;DHT22;43583;53.132;6.574;2022-08-30T15:31:25;21.90;76.50
57753;DHT22;43583;53.132;6.574;2022-08-30T15:33:56;22.00;76.00
57753;DHT22;43583;53.132;6.574;2022-08-30T15:36:23;22.10;76.70
57753;DHT22;43583;53.132;6.574;2022-08-30T15:38:51;22.10;77.20
57753;DHT22;43583;53.132;6.574;2022-08-30T15:41:19;22.10;77.00
57753;DHT22;43583;53.132;6.574;2022-08-30T15:43:45;22.10;77.10
57753;DHT22;43583;53.132;6.574;2022-08-30T15:46:26;22.10;78.10
57753;DHT22;43583;53.132;6.574;2022-08-30T15:48:54;22.00;77.80
57753;DHT22;43583;53.132;6.574;2022-08-30T15:51:23;21.90;77.60
57753;DHT22;43583;53.132;6.574;2022-08-30T15:53:49;21.70;78.10
57753;DHT22;43583;53.132;6.574;2022-08-30T15:56:14;21.60;78.80
57753;DHT22;43583;53.132;6.574;2022-08-30T15:58:41;21.60;79.30
57753;DHT22;43583;53.132;6.574;2022-08-30T16:01:08;21.70;79.50
57753;DHT22;43583;53.132;6.574;2022-08-30T16:03:34;21.80;80.10
57753;DHT22;43583;53.132;6.574;2022-08-30T16:06:01;22.00;81.00
57753;DHT22;43583;53.132;6.574;2022-08-30T16:08:27;22.10;81.20
57753;DHT22;43583;53.132;6.574;2022-08-30T16:10:53;22.20;81.50
57753;DHT22;43583;53.132;6.574;2022-08-30T16:13:19;22.00;84.20
57753;DHT22;43583;53.132;6.574;2022-08-30T16:15:44;21.90;84.70
57753;DHT22;43583;53.132;6.574;2022-08-30T16:18:11;21.70;86.80
57753;DHT22;43583;53.132;6.574;2022-08-30T16:20:39;21.50;88.50
57753;DHT22;43583;53.132;6.574;2022-08-30T16:23:06;21.30;90.10
57753;DHT22;43583;53.132;6.574;2022-08-30T16:25:31;21.20;91.50
57753;DHT22;43583;53.132;6.574;2022-08-30T16:27:57;21.00;92.10
57753;DHT22;43583;53.132;6.574;2022-08-30T16:30:23;21.00;92.80
57753;DHT22;43583;53.132;6.574;2022-08-30T16:32:48;21.00;94.50